createdAt,value
2018-07-06T03:34:53.131Z,16.90
2018-07-06T03:37:37.018Z,17.00
2018-07-06T03:40:20.780Z,17.00
2018-07-06T03:43:04.574Z,17.00
2018-07-06T03:45:48.433Z,17.10
2018-07-06T03:48:32.133Z,17.20
2018-07-06T03:51:16.288Z,17.40
2018-07-06T03:54:00.137Z,17.60
2018-07-06T03:56:44.121Z,17.80
2018-07-06T03:59:27.993Z,18.10
2018-07-06T04:02:11.818Z,18.50
2018-07-06T04:04:55.800Z,19.00
2018-07-06T04:07:39.435Z,19.50
2018-07-06T04:10:23.222Z,20.00
2018-07-06T04:13:07.080Z,20.30
2018-07-06T04:15:50.785Z,20.40
2018-07-06T04:18:34.752Z,20.70
2018-07-06T04:21:18.653Z,20.90
2018-07-06T04:24:02.330Z,20.90
2018-07-06T04:26:46.074Z,20.60
2018-07-06T04:29:30.062Z,20.50
2018-07-06T04:32:13.702Z,20.50
2018-07-06T04:34:57.453Z,20.30
2018-07-06T04:37:41.342Z,20.10
2018-07-06T04:40:25.111Z,20.10
2018-07-06T04:43:08.893Z,20.10
2018-07-06T04:45:52.693Z,20.10
2018-07-06T04:48:36.780Z,20.30
2018-07-06T04:51:20.429Z,20.70
2018-07-06T04:54:04.137Z,21.20
2018-07-06T04:56:47.960Z,21.90
2018-07-06T04:59:31.842Z,22.10
2018-07-06T05:02:15.718Z,22.10
2018-07-06T05:04:59.527Z,22.20
2018-07-06T05:07:43.359Z,23.10
2018-07-06T05:10:26.976Z,23.70
2018-07-06T05:13:10.580Z,24.20
2018-07-06T05:15:54.484Z,24.70
2018-07-06T05:18:38.354Z,25.20
2018-07-06T05:21:22.147Z,25.80
2018-07-06T05:24:06.253Z,25.70
2018-07-06T05:26:50.094Z,25.50
2018-07-06T05:29:33.770Z,25.90
2018-07-06T05:32:17.611Z,26.20
2018-07-06T05:35:01.415Z,26.50
2018-07-06T05:37:45.389Z,26.30
2018-07-06T05:40:29.195Z,26.40
2018-07-06T05:43:13.017Z,26.80
2018-07-06T05:45:56.740Z,26.90
2018-07-06T05:48:40.550Z,25.80
2018-07-06T05:51:24.414Z,25.10
2018-07-06T05:54:08.480Z,25.10
2018-07-06T05:56:52.356Z,25.50
2018-07-06T05:59:36.093Z,25.20
2018-07-06T06:02:20.222Z,24.60
2018-07-06T06:05:04.121Z,24.10
2018-07-06T06:07:35.510Z,23.30
2018-07-06T06:10:08.141Z,22.60
2018-07-06T06:12:40.545Z,22.30
2018-07-06T06:15:13.246Z,21.90
2018-07-06T06:17:45.892Z,21.70
2018-07-06T06:20:18.281Z,21.40
2018-07-06T06:22:50.721Z,21.00
2018-07-06T06:25:23.121Z,20.50
2018-07-06T06:27:55.812Z,20.40
2018-07-06T06:30:28.225Z,20.20
2018-07-06T06:33:01.049Z,19.90
2018-07-06T06:35:33.897Z,19.60
2018-07-06T06:38:06.312Z,19.50
2018-07-06T06:40:39.153Z,19.40
2018-07-06T06:43:11.556Z,19.30
2018-07-06T06:45:44.235Z,19.20
2018-07-06T06:48:16.640Z,19.00
2018-07-06T06:50:49.062Z,19.00
2018-07-06T06:53:21.413Z,19.00
2018-07-06T06:55:54.163Z,19.10
2018-07-06T06:58:26.793Z,19.20
2018-07-06T07:00:59.492Z,19.20
2018-07-06T07:03:32.487Z,19.10
2018-07-06T07:08:37.175Z,19.30
2018-07-06T07:11:09.591Z,19.30
2018-07-06T07:13:41.993Z,19.50
2018-07-06T07:16:14.631Z,19.70
2018-07-06T07:18:47.569Z,20.10
2018-07-06T07:21:19.948Z,20.20
2018-07-06T07:23:52.333Z,20.40
2018-07-06T07:26:25.045Z,20.70
2018-07-06T07:28:57.425Z,21.10
2018-07-06T07:31:29.807Z,21.50
2018-07-06T07:34:02.217Z,21.50
2018-07-06T07:39:02.005Z,21.60
2018-07-06T07:41:34.312Z,21.70
2018-07-06T07:44:06.716Z,21.70
2018-07-06T07:46:39.167Z,21.50
2018-07-06T07:49:11.493Z,21.40
2018-07-06T07:51:55.256Z,21.50
2018-07-06T07:54:27.697Z,21.70
2018-07-06T07:57:00.116Z,21.70
2018-07-06T07:59:32.589Z,21.50
2018-07-06T08:02:05.458Z,21.30
2018-07-06T08:04:38.333Z,21.00
2018-07-06T08:07:10.709Z,21.00
2018-07-06T08:09:43.121Z,21.10
2018-07-06T08:12:15.828Z,21.10
2018-07-06T08:14:48.505Z,21.10
2018-07-06T08:17:20.877Z,21.10
2018-07-06T08:19:53.263Z,21.10
2018-07-06T08:22:25.913Z,21.00
2018-07-06T08:24:58.330Z,21.00
2018-07-06T08:27:31.006Z,21.10
2018-07-06T08:30:03.408Z,21.20
2018-07-06T08:32:36.057Z,21.40
2018-07-06T08:35:19.796Z,21.30
2018-07-06T08:37:58.113Z,21.00
2018-07-06T08:40:30.513Z,20.80
2018-07-06T08:43:02.897Z,20.90
2018-07-06T08:45:35.553Z,21.20
2018-07-06T08:48:07.961Z,21.20
2018-07-06T08:50:40.691Z,21.10
2018-07-06T08:53:13.305Z,21.20
2018-07-06T08:55:46.013Z,21.20
2018-07-06T08:58:18.420Z,21.20
2018-07-06T09:00:51.089Z,20.90
2018-07-06T09:03:23.870Z,20.80
2018-07-06T09:05:56.549Z,20.80
2018-07-06T09:08:29.017Z,20.80
2018-07-06T09:11:01.910Z,21.20
2018-07-06T09:13:34.733Z,21.60
2018-07-06T09:16:07.441Z,22.00
2018-07-06T09:18:40.274Z,22.10
2018-07-06T09:21:13.033Z,22.00
2018-07-06T09:23:45.912Z,22.10
2018-07-06T09:26:18.685Z,22.00
2018-07-06T09:28:51.431Z,21.90
2018-07-06T09:31:24.189Z,22.10
2018-07-06T09:33:56.974Z,22.20
2018-07-06T09:36:29.378Z,22.30
2018-07-06T09:39:02.089Z,22.40
2018-07-06T09:41:34.819Z,22.50
2018-07-06T09:44:07.257Z,22.70
2018-07-06T09:46:39.990Z,23.20
2018-07-06T09:49:12.649Z,23.00
2018-07-06T09:51:45.074Z,23.10
2018-07-06T09:54:17.811Z,23.30
2018-07-06T09:56:50.205Z,23.50
2018-07-06T09:59:22.699Z,24.00
2018-07-06T10:01:55.097Z,24.40
2018-07-06T10:04:27.564Z,24.20
2018-07-06T10:06:59.866Z,24.10
2018-07-06T10:09:32.254Z,24.30
2018-07-06T10:12:04.724Z,25.00
2018-07-06T10:14:37.117Z,25.20
2018-07-06T10:17:09.781Z,25.10
2018-07-06T10:19:42.248Z,24.60
2018-07-06T10:22:14.589Z,24.70
2018-07-06T10:24:47.011Z,25.20
2018-07-06T10:27:20.287Z,26.00
2018-07-06T10:29:59.593Z,27.00
2018-07-06T10:32:31.974Z,27.80
2018-07-06T10:35:04.441Z,28.30
2018-07-06T10:37:36.981Z,27.70
2018-07-06T10:40:09.513Z,27.50
2018-07-06T10:42:42.441Z,27.60
2018-07-06T10:45:15.061Z,28.10
2018-07-06T10:47:47.657Z,28.40
2018-07-06T10:50:20.058Z,28.60
2018-07-06T10:52:52.445Z,28.90
2018-07-06T10:55:24.833Z,29.20
2018-07-06T10:57:57.223Z,29.80
2018-07-06T11:00:29.659Z,29.60
2018-07-06T11:03:02.334Z,29.30
2018-07-06T11:05:34.753Z,29.60
2018-07-06T11:08:07.208Z,30.10
2018-07-06T11:10:39.629Z,30.30
2018-07-06T11:13:12.254Z,30.30
2018-07-06T11:18:17.420Z,29.60
2018-07-06T11:20:49.810Z,30.20
2018-07-06T11:23:22.472Z,29.50
2018-07-06T11:25:54.861Z,29.50
2018-07-06T11:28:27.647Z,29.30
2018-07-06T11:31:00.040Z,28.90
2018-07-06T11:33:32.423Z,28.70
2018-07-06T11:36:05.180Z,29.20
2018-07-06T11:38:37.549Z,29.80
2018-07-06T11:41:10.249Z,29.70
2018-07-06T11:43:42.945Z,29.10
2018-07-06T11:46:15.353Z,28.60
2018-07-06T11:48:47.737Z,27.80
2018-07-06T11:51:20.125Z,27.20
2018-07-06T11:53:52.738Z,26.50
2018-07-06T11:56:25.627Z,26.30
2018-07-06T11:58:58.000Z,26.30
2018-07-06T12:01:30.618Z,26.30
2018-07-06T12:04:03.087Z,26.10
2018-07-06T12:06:35.400Z,26.00
2018-07-06T12:09:08.048Z,26.20
2018-07-06T12:11:40.662Z,26.30
2018-07-06T12:14:13.553Z,26.30
2018-07-06T12:16:45.949Z,26.10
2018-07-06T12:19:18.424Z,26.10
2018-07-06T12:21:51.058Z,26.20
2018-07-06T12:24:23.432Z,26.10
2018-07-06T12:26:55.821Z,25.90
2018-07-06T12:29:28.445Z,25.70
2018-07-06T12:32:00.869Z,25.40
2018-07-06T12:34:33.233Z,25.40
2018-07-06T12:37:05.661Z,25.50
2018-07-06T12:39:38.029Z,25.60
2018-07-06T12:42:10.422Z,25.60
2018-07-06T12:44:43.078Z,25.50
2018-07-06T12:47:15.510Z,25.30
2018-07-06T12:49:47.888Z,25.40
2018-07-06T12:52:20.305Z,25.40
2018-07-06T12:54:52.693Z,25.60
2018-07-06T12:57:25.101Z,25.60
2018-07-06T12:59:57.502Z,25.60
2018-07-06T13:02:30.149Z,25.70
2018-07-06T13:05:02.597Z,25.60
2018-07-06T13:07:35.023Z,25.50
2018-07-06T13:10:07.421Z,25.60
2018-07-06T13:12:40.117Z,25.80
2018-07-06T13:15:12.521Z,25.90
2018-07-06T13:17:44.953Z,26.00
2018-07-06T13:20:17.677Z,25.90
2018-07-06T13:22:50.078Z,25.60
2018-07-06T13:25:22.785Z,25.50
2018-07-06T13:27:55.298Z,25.50
2018-07-06T13:30:27.977Z,25.60
2018-07-06T13:33:00.401Z,25.70
2018-07-06T13:35:32.789Z,25.60
2018-07-06T13:38:05.604Z,25.70
2018-07-06T13:40:37.998Z,25.60
2018-07-06T13:43:10.389Z,25.60
2018-07-06T13:45:42.824Z,25.40
2018-07-06T13:48:15.181Z,25.40
2018-07-06T13:50:47.874Z,25.40
2018-07-06T13:53:20.257Z,25.50
2018-07-06T13:55:52.657Z,25.70
2018-07-06T13:58:25.048Z,25.60
2018-07-06T14:00:57.769Z,25.70
2018-07-06T14:03:30.458Z,25.80
2018-07-06T14:06:02.834Z,25.80
2018-07-06T14:08:35.219Z,25.80
2018-07-06T14:11:07.589Z,26.00
2018-07-06T14:13:39.990Z,26.30
2018-07-06T14:16:12.371Z,26.50
2018-07-06T14:18:45.014Z,26.40
2018-07-06T14:21:17.621Z,26.40
2018-07-06T14:23:50.285Z,26.50
2018-07-06T14:26:22.657Z,26.60
2018-07-06T14:28:55.289Z,26.70
2018-07-06T14:31:27.969Z,26.80
2018-07-06T14:34:00.365Z,26.90
2018-07-06T14:36:32.732Z,27.00
2018-07-06T14:39:06.485Z,26.70
2018-07-06T14:41:38.890Z,26.50
2018-07-06T14:44:11.271Z,26.30
2018-07-06T14:46:43.701Z,26.00
2018-07-06T14:49:16.132Z,25.90
2018-07-06T14:51:48.543Z,25.70
2018-07-06T14:54:20.933Z,25.40
2018-07-06T14:56:53.366Z,25.20
2018-07-06T14:59:26.049Z,25.00
2018-07-06T15:01:58.448Z,24.80
2018-07-06T15:04:31.153Z,24.70
2018-07-06T15:07:03.618Z,24.60
2018-07-06T15:09:36.217Z,24.50
2018-07-06T15:12:08.632Z,24.50
2018-07-06T15:14:41.014Z,24.40
2018-07-06T15:17:13.732Z,24.30
2018-07-06T15:19:46.449Z,24.30
2018-07-06T15:22:19.089Z,24.30
2018-07-06T15:24:51.550Z,24.40
2018-07-06T15:27:24.137Z,24.50
2018-07-06T15:29:56.529Z,24.60
2018-07-06T15:32:28.938Z,24.80
2018-07-06T15:35:01.335Z,25.00
2018-07-06T15:37:33.729Z,25.20
2018-07-06T15:40:06.142Z,25.30
2018-07-06T15:42:38.777Z,25.40
2018-07-06T15:45:11.454Z,25.50
2018-07-06T15:47:43.859Z,25.40
2018-07-06T15:50:16.249Z,25.50
2018-07-06T15:52:48.633Z,25.50
2018-07-06T15:55:21.341Z,25.40
2018-07-06T15:57:53.727Z,25.40
2018-07-06T16:00:26.329Z,25.40
2018-07-06T16:02:58.977Z,25.40
2018-07-06T16:05:31.353Z,25.40
2018-07-06T16:08:03.790Z,25.40
2018-07-06T16:10:36.158Z,25.40
2018-07-06T16:13:08.577Z,25.40
2018-07-06T16:15:40.956Z,25.50
2018-07-06T16:18:14.105Z,25.60
2018-07-06T16:20:46.529Z,25.60
2018-07-06T16:23:18.877Z,25.80
2018-07-06T16:25:51.569Z,25.80
2018-07-06T16:28:23.945Z,25.80
2018-07-06T16:30:56.309Z,25.80
2018-07-06T16:33:28.949Z,25.80
2018-07-06T16:36:01.317Z,25.80
2018-07-06T16:38:33.993Z,25.90
2018-07-06T16:41:07.277Z,26.00
2018-07-06T16:43:39.674Z,26.10
2018-07-06T16:48:44.326Z,26.40
2018-07-06T16:51:16.692Z,26.50
2018-07-06T16:53:49.073Z,26.30
2018-07-06T16:56:21.457Z,26.00
2018-07-06T16:58:54.067Z,25.80
2018-07-06T17:01:26.446Z,25.80
2018-07-06T17:03:59.141Z,25.70
2018-07-06T17:06:31.546Z,25.60
2018-07-06T17:09:04.692Z,25.70
2018-07-06T17:11:37.068Z,25.70
2018-07-06T17:14:09.748Z,25.60
2018-07-06T17:16:42.669Z,25.60
2018-07-06T17:19:15.697Z,25.60
2018-07-06T17:21:48.039Z,25.50
2018-07-06T17:24:20.706Z,25.50
2018-07-06T17:26:53.296Z,25.40
2018-07-06T17:29:25.685Z,25.50
2018-07-06T17:31:58.333Z,25.50
2018-07-06T17:34:30.733Z,25.50
2018-07-06T17:37:03.180Z,25.40
2018-07-06T17:39:35.809Z,25.40
2018-07-06T17:42:08.181Z,25.30
2018-07-06T17:44:40.806Z,25.20
2018-07-06T17:47:13.188Z,25.20
2018-07-06T17:49:45.929Z,25.10
2018-07-06T17:52:18.313Z,25.10
2018-07-06T17:54:50.704Z,25.00
2018-07-06T17:57:23.078Z,25.00
2018-07-06T17:59:55.681Z,25.00
2018-07-06T18:02:28.333Z,24.90
2018-07-06T18:05:00.953Z,24.90
2018-07-06T18:07:33.653Z,25.00
2018-07-06T18:10:06.041Z,25.00
2018-07-06T18:12:38.439Z,25.00
2018-07-06T18:15:10.840Z,25.10
2018-07-06T18:17:43.217Z,25.00
2018-07-06T18:20:15.646Z,25.00
2018-07-06T18:22:48.709Z,25.00
2018-07-06T18:25:21.157Z,25.00
2018-07-06T18:27:53.530Z,25.00
2018-07-06T18:30:26.252Z,25.00
2018-07-06T18:32:58.632Z,24.90
2018-07-06T18:35:31.049Z,25.00
2018-07-06T18:38:03.479Z,24.90
2018-07-06T18:40:36.157Z,24.90
2018-07-06T18:43:08.522Z,24.80
2018-07-06T18:48:13.126Z,24.70
2018-07-06T18:50:45.789Z,24.70
2018-07-06T18:53:18.160Z,24.60
2018-07-06T18:55:50.557Z,24.50
2018-07-06T18:58:22.925Z,24.40
2018-07-06T19:00:55.845Z,24.40
2018-07-06T19:03:28.225Z,24.30
2018-07-06T19:06:00.898Z,24.30
2018-07-06T19:08:33.309Z,24.20
2018-07-06T19:11:05.763Z,24.10
2018-07-06T19:13:38.426Z,24.10
2018-07-06T19:16:10.819Z,24.00
2018-07-06T19:18:43.221Z,24.00
2018-07-06T19:21:15.601Z,24.00
2018-07-06T19:23:48.317Z,23.90
2018-07-06T19:26:20.702Z,23.90
2018-07-06T19:28:53.077Z,23.90
2018-07-06T19:31:25.741Z,23.80
2018-07-06T19:33:58.110Z,23.80
2018-07-06T19:36:30.545Z,23.70
